This is the latest recevied weather packets stored in our database for station/object IU5JAE-13. If no packets are shown the sender has not sent any weather packets the latest 10 day(s).
| Time | Temp. | Humidity | Pressure | Rain* | Wind** | Luminosity | Snow |
|---|---|---|---|---|---|---|---|
| 1788190222 | 25° C | 75% | 1017.9 hPa | 0 mm | - | 169 W/m² | - |
| 1788189620 | 25° C | 73% | 1017.9 hPa | 0 mm | - | 191 W/m² | - |
| 1788189018 | 25° C | 74% | 1017.9 hPa | 0 mm | - | 241 W/m² | - |
| 1788188435 | 25.56° C | 76% | 1017.8 hPa | 0 mm | - | 259 W/m² | - |
| 1788187833 | 25° C | 77% | 1018 hPa | 0 mm | - | 277 W/m² | - |
| 1788187230 | 25° C | 77% | 1018 hPa | 0 mm | - | 181 W/m² | - |
| 1788186628 | 25.56° C | 73% | 1017.9 hPa | 0 mm | - | 313 W/m² | - |
| 1788186026 | 26.11° C | 71% | 1017.9 hPa | 0 mm | - | 301 W/m² | - |
| 1788185423 | 26.11° C | 71% | 1017.9 hPa | 0 mm | - | 346 W/m² | - |
| 1788184821 | 25.56° C | 71% | 1017.9 hPa | 0 mm | - | 364 W/m² | - |
| 1788184218 | 26.11° C | 71% | 1018 hPa | 0 mm | - | 258 W/m² | - |
| 1788183616 | 26.11° C | 70% | 1018 hPa | 0 mm | - | 383 W/m² | - |
| 1788183034 | 26.11° C | 69% | 1018 hPa | 0 mm | - | 436 W/m² | - |
| 1788182431 | 26.67° C | 68% | 1018 hPa | 0 mm | - | 459 W/m² | - |
| 1788181829 | 27.22° C | 67% | 1018 hPa | 0 mm | - | 482 W/m² | - |
| 1788181226 | 27.22° C | 67% | 1018 hPa | 0 mm | - | 508 W/m² | - |
| 1788180624 | 26.67° C | 69% | 1018 hPa | 0 mm | - | 533 W/m² | - |
| 1788180021 | 26.67° C | 69% | 1018.1 hPa | 0 mm | - | 554 W/m² | - |
| 1788179419 | 26.67° C | 70% | 1018 hPa | 0 mm | - | 575 W/m² | - |
| 1788178816 | 26.67° C | 69% | 1018 hPa | 0 mm | - | 287 W/m² | - |
| 1788178234 | 27.22° C | 67% | 1018.1 hPa | 0 mm | - | 550 W/m² | - |
| 1788177632 | 27.22° C | 67% | 1018.1 hPa | 0 mm | - | 608 W/m² | - |
| 1788177029 | 26.67° C | 68% | 1018.1 hPa | 0 mm | - | 615 W/m² | - |
| 1788176427 | 27.22° C | 67% | 1018 hPa | 0 mm | - | 607 W/m² | - |
| 1788175824 | 26.67° C | 68% | 1018.2 hPa | 0 mm | - | 603 W/m² | - |
* Rain latest hour (hover to see other rain measurements)
** Current wind speed in m/s (hover to see current wind gust speed)